Skip Navigation LinksHome page > Weather > Current weather Skip Navigation Links

Current Weather

Indira Gandhi Intl Apt, New Delhi, India

For information only: do not use for flight planning or navigation.
Latest weather
Observation time Wednesday, October 20, 2021 3:00 AM IST
Local time Wednesday, October 20, 2021 3:09 AM IST
Flight conditions Instrument Meteorological Conditions
Winds
Wind speed calm
Visibility 1.9 mi.
Present weather mist
Sky condition
Ceiling unlimited
Cloud layer few clouds 10,000 ft.
Temperature 73°F
Dewpoint 72°F
Altimeter 29.83 in.Hg
Derived measurements
Relative humidity 94%
Density altitude 2160 ft.
Remarks
No significant changes expected in the next two hours.
METAR VIDP 192130Z 00000KT 3000 BR FEW100 23/22 Q1010 NOSIG

Settings

Location code

InnerDrive.Weather 4.0.6770.0 Release CLR 4.0.30319.42000
Copyright ©2018 Inner Drive Technology. All rights reserved. Portions Copyright ©1986-2018 David Braverman.

Find weather

Site navigation


Skip Navigation Links

Place info

Page info

PayPal - The safer, easier way to pay online!

Return home.

Copyright ©2021 Inner Drive Technology. Purveyors of fine, hand-crafted computer software. Page printed 2021-10-19T21:39:10 UTC.